Time;durP1;ratioP1;P1;durP2;ratioP2;P2;SDS_P1;SDS_P2;PMS_P1;PMS_P2;Temp;Humidity;BMP_temperature;BMP_pressure;BME280_temperature;BME280_humidity;BME280_pressure;Samples;Min_cycle;Max_cycle;Signal;HPM_P1;HPM_P2
2023/03/06 00:00:43;;;;;;;5.30;4.78;;;;;;;4.41;79.85;100666.25;3607819;39;20494;-70
2023/03/06 00:03:09;;;;;;;8.15;5.15;;;;;;;4.39;79.17;100662.78;3612965;39;20163;-70
2023/03/06 00:05:35;;;;;;;7.68;5.47;;;;;;;4.37;79.60;100655.78;3609715;39;20059;-69
2023/03/06 00:08:00;;;;;;;6.53;5.00;;;;;;;4.37;79.98;100658.44;3610202;39;20318;-69
2023/03/06 00:10:29;;;;;;;7.28;5.22;;;;;;;4.34;79.03;100658.53;3606193;39;20050;-70
2023/03/06 00:12:59;;;;;;;6.57;5.07;;;;;;;4.33;79.17;100652.38;3606209;39;20079;-70
2023/03/06 00:15:27;;;;;;;6.50;5.55;;;;;;;4.31;79.49;100651.53;3609095;39;20063;-69
2023/03/06 00:17:53;;;;;;;7.15;4.93;;;;;;;4.29;79.48;100650.75;3607442;39;20425;-69
2023/03/06 00:20:20;;;;;;;7.32;5.40;;;;;;;4.26;79.58;100642.03;3607280;39;20063;-72
2023/03/06 00:22:45;;;;;;;11.00;5.68;;;;;;;4.27;79.68;100639.28;3609864;39;20051;-70
2023/03/06 00:25:21;;;;;;;8.55;6.03;;;;;;;4.27;79.91;100638.44;3603301;39;20112;-70
2023/03/06 00:27:48;;;;;;;10.65;5.75;;;;;;;4.25;79.73;100633.19;3609103;39;20053;-69
2023/03/06 00:30:19;;;;;;;7.10;5.57;;;;;;;4.05;79.60;100610.00;3607300;39;20051;-70
2023/03/06 00:32:45;;;;;;;7.50;6.13;;;;;;;4.06;79.84;100610.84;3611163;39;20349;-70
2023/03/06 00:35:12;;;;;;;7.20;5.57;;;;;;;4.20;79.80;100632.50;3607416;39;20062;-69
2023/03/06 00:37:39;;;;;;;9.18;6.05;;;;;;;3.98;79.46;100594.34;3606346;39;20062;-71
2023/03/06 00:40:09;;;;;;;7.47;6.53;;;;;;;4.17;79.76;100630.81;3609081;39;20119;-69
2023/03/06 00:42:35;;;;;;;10.85;6.93;;;;;;;4.16;79.62;100618.44;3606783;39;20419;-69
2023/03/06 00:45:00;;;;;;;8.38;6.80;;;;;;;4.16;79.70;100617.59;3609945;39;20051;-69
2023/03/06 00:47:26;;;;;;;11.68;6.85;;;;;;;4.04;80.03;100599.44;3609175;39;20043;-69
2023/03/06 00:49:51;;;;;;;10.27;7.20;;;;;;;3.94;79.84;100591.81;3612255;39;20133;-69
2023/03/06 00:52:17;;;;;;;9.27;6.57;;;;;;;4.08;80.21;100617.00;3609069;39;20381;-70
2023/03/06 00:54:43;;;;;;;10.73;7.25;;;;;;;3.97;80.26;100592.63;3609510;39;20058;-69
2023/03/06 00:57:09;;;;;;;9.35;7.10;;;;;;;3.92;79.63;100601.63;3614035;39;20042;-69
2023/03/06 00:59:35;;;;;;;10.43;7.28;;;;;;;3.97;79.22;100613.91;3612316;39;20071;-71
2023/03/06 01:02:02;;;;;;;11.02;7.75;;;;;;;3.67;79.74;100568.91;3608701;39;20043;-70
2023/03/06 01:04:27;;;;;;;9.48;7.07;;;;;;;3.88;79.33;100604.47;3612447;39;20065;-69
2023/03/06 01:06:53;;;;;;;9.50;7.25;;;;;;;3.83;79.79;100609.94;3615033;39;20059;-69
2023/03/06 01:09:19;;;;;;;12.43;8.00;;;;;;;3.81;80.15;100598.53;3610712;39;20066;-69
2023/03/06 01:11:44;;;;;;;11.10;7.65;;;;;;;3.47;80.33;100548.41;3609014;39;20066;-70
2023/03/06 01:14:10;;;;;;;9.70;7.43;;;;;;;3.75;80.22;100595.22;3603202;39;20047;-70
2023/03/06 01:16:36;;;;;;;12.10;7.70;;;;;;;3.69;79.97;100588.34;3612547;39;20388;-69
2023/03/06 01:19:01;;;;;;;12.50;7.93;;;;;;;3.65;80.25;100589.38;3612117;39;20059;-69
2023/03/06 01:21:27;;;;;;;10.65;7.82;;;;;;;3.62;79.97;100594.81;3610140;39;20062;-69
2023/03/06 01:23:53;;;;;;;10.93;7.90;;;;;;;3.55;79.86;100590.63;3609442;39;20055;-68
2023/03/06 01:26:18;;;;;;;11.02;7.85;;;;;;;3.52;80.02;100593.38;3607417;39;20078;-70
2023/03/06 01:28:44;;;;;;;11.60;8.38;;;;;;;3.42;80.73;100577.78;3611766;39;20073;-70
2023/03/06 01:31:10;;;;;;;10.32;7.97;;;;;;;3.44;80.96;100580.41;3611478;39;20059;-70
2023/03/06 01:33:36;;;;;;;10.45;7.68;;;;;;;3.23;79.99;100558.13;3613424;39;20095;-70
2023/03/06 01:36:10;;;;;;;10.68;7.70;;;;;;;3.34;80.51;100574.56;3613965;39;20078;-69
2023/03/06 01:38:35;;;;;;;11.55;8.50;;;;;;;3.35;80.54;100580.72;3596913;39;20059;-69
2023/03/06 01:41:02;;;;;;;10.68;7.90;;;;;;;3.30;80.62;100580.91;3610610;39;20061;-69
2023/03/06 01:43:31;;;;;;;12.98;8.20;;;;;;;3.24;80.76;100573.16;3610361;39;20352;-69
2023/03/06 01:46:21;;;;;;;10.93;8.20;;;;;;;2.98;80.53;100529.81;3609619;39;20051;-68
2023/03/06 01:48:53;;;;;;;11.30;8.18;;;;;;;3.11;80.98;100566.53;3610624;39;20054;-69
2023/03/06 01:51:22;;;;;;;10.40;7.65;;;;;;;3.18;81.47;100573.38;3606719;39;20148;-69
2023/03/06 01:53:51;;;;;;;13.85;8.32;;;;;;;3.16;81.78;100561.94;3609687;39;20631;-69
2023/03/06 01:56:19;;;;;;;12.68;7.68;;;;;;;3.13;80.54;100564.69;3609819;39;20058;-69
2023/03/06 01:58:48;;;;;;;13.55;7.78;;;;;;;3.11;81.13;100566.53;3614415;39;20432;-69
2023/03/06 02:01:16;;;;;;;11.90;7.38;;;;;;;3.08;81.42;100564.88;3607109;39;20047;-69
2023/03/06 02:03:44;;;;;;;11.38;7.78;;;;;;;3.03;80.69;100562.34;3611969;39;20058;-69
2023/03/06 02:06:10;;;;;;;10.85;8.23;;;;;;;3.02;81.45;100563.28;3608267;39;20082;-69
2023/03/06 02:08:37;;;;;;;9.93;7.18;;;;;;;3.00;80.77;100557.16;3609296;39;20396;-68
2023/03/06 02:11:12;;;;;;;10.90;7.63;;;;;;;2.97;81.25;100557.25;3610580;39;20046;-68
2023/03/06 02:13:40;;;;;;;10.35;7.57;;;;;;;2.76;80.74;100528.81;3610379;39;20078;-68
2023/03/06 02:16:10;;;;;;;10.40;7.68;;;;;;;2.89;80.68;100551.38;3609679;39;20359;-68
2023/03/06 02:18:39;;;;;;;11.25;7.25;;;;;;;2.86;81.02;100545.28;3608962;39;20077;-68
2023/03/06 02:21:10;;;;;;;11.50;7.78;;;;;;;2.80;80.57;100541.06;3607764;39;20054;-68
2023/03/06 02:24:09;;;;;;;12.85;8.05;;;;;;;2.75;80.98;100543.84;3611866;39;20605;-68
2023/03/06 02:26:39;;;;;;;11.18;7.45;;;;;;;2.69;81.35;100537.88;3611514;39;20078;-70
2023/03/06 02:29:07;;;;;;;12.13;7.97;;;;;;;2.68;81.03;100534.38;3613394;39;20292;-69
2023/03/06 02:31:34;;;;;;;12.45;8.60;;;;;;;2.68;81.14;100530.84;3609678;39;20065;-69
2023/03/06 02:34:14;;;;;;;10.07;7.75;;;;;;;2.64;81.67;100532.75;3608578;39;20055;-69
2023/03/06 02:36:48;;;;;;;11.82;7.80;;;;;;;2.62;80.55;100528.41;3610950;39;20086;-69
2023/03/06 02:39:18;;;;;;;12.52;8.38;;;;;;;2.59;81.19;100525.88;3607143;39;20055;-69
2023/03/06 02:41:44;;;;;;;11.30;7.97;;;;;;;2.56;81.15;100519.72;3605894;39;20059;-69
2023/03/06 02:44:10;;;;;;;12.50;8.18;;;;;;;2.52;81.65;100515.44;3606963;39;20059;-69
2023/03/06 02:46:35;;;;;;;11.27;8.50;;;;;;;2.50;81.72;100513.75;3606116;39;20054;-69
2023/03/06 02:49:01;;;;;;;12.45;8.68;;;;;;;2.48;81.55;100508.53;3609318;39;20374;-69
2023/03/06 02:51:27;;;;;;;12.50;8.88;;;;;;;2.47;82.42;100511.22;3607570;39;20051;-69
2023/03/06 02:53:52;;;;;;;13.38;8.63;;;;;;;2.45;82.04;100508.63;3606297;39;20075;-70
2023/03/06 02:56:19;;;;;;;12.13;8.95;;;;;;;2.44;82.05;100508.66;3611570;39;20044;-68
2023/03/06 02:58:45;;;;;;;12.85;8.77;;;;;;;2.29;82.25;100478.22;3609869;39;20584;-68
2023/03/06 03:01:11;;;;;;;13.88;9.60;;;;;;;2.41;81.99;100504.34;3604080;39;20047;-69
2023/03/06 03:03:37;;;;;;;16.48;9.77;;;;;;;2.20;81.89;100462.63;3607996;39;20054;-69
2023/03/06 03:06:04;;;;;;;13.65;9.43;;;;;;;2.42;82.82;100498.13;3606638;39;20386;-69
2023/03/06 03:08:31;;;;;;;17.23;10.35;;;;;;;2.42;82.37;100495.47;3612358;39;20091;-69
2023/03/06 03:10:57;;;;;;;15.95;10.13;;;;;;;2.45;82.42;100495.38;3608386;39;20054;-69
2023/03/06 03:13:23;;;;;;;16.45;10.50;;;;;;;2.41;81.60;100496.41;3611653;39;20050;-70
2023/03/06 03:16:02;;;;;;;16.00;10.27;;;;;;;2.41;82.19;100493.75;3605847;39;20069;-68
2023/03/06 03:18:28;;;;;;;18.38;11.18;;;;;;;2.43;82.23;100489.22;3605514;39;20058;-68
2023/03/06 03:20:55;;;;;;;17.67;10.98;;;;;;;2.43;83.05;100486.56;3606740;39;20051;-68
2023/03/06 03:23:21;;;;;;;14.95;9.90;;;;;;;2.39;82.25;100478.78;3608524;39;20046;-68
2023/03/06 03:25:47;;;;;;;15.27;10.30;;;;;;;2.42;82.34;100495.47;3605238;39;21322;-68
2023/03/06 03:28:13;;;;;;;18.17;10.77;;;;;;;2.43;82.14;100486.56;3606549;39;20070;-70
2023/03/06 03:30:40;;;;;;;14.63;10.48;;;;;;;2.42;81.48;100491.94;3604890;39;20625;-69
2023/03/06 03:33:06;;;;;;;18.05;10.70;;;;;;;2.39;81.18;100476.13;3608071;39;20062;-68
2023/03/06 03:35:32;;;;;;;19.92;11.18;;;;;;;2.37;81.52;100476.16;3604171;39;20051;-68
2023/03/06 03:37:58;;;;;;;18.52;11.75;;;;;;;2.37;82.46;100477.97;3611260;39;20053;-68
2023/03/06 03:40:24;;;;;;;17.40;11.65;;;;;;;2.34;82.18;100468.31;3605220;39;20058;-69
2023/03/06 03:42:50;;;;;;;16.60;11.18;;;;;;;2.34;82.20;100468.31;3606777;39;20082;-69
2023/03/06 03:45:16;;;;;;;18.63;11.52;;;;;;;2.32;81.31;100468.38;3609222;39;20055;-68
2023/03/06 03:47:41;;;;;;;17.45;11.52;;;;;;;1.55;81.35;100340.16;3604422;39;20079;-69
2023/03/06 03:50:08;;;;;;;17.27;11.35;;;;;;;2.04;82.08;100415.41;3604238;39;20087;-68
2023/03/06 03:52:34;;;;;;;17.98;11.30;;;;;;;2.29;81.84;100459.66;3606422;39;20055;-70
2023/03/06 03:55:00;;;;;;;17.77;12.02;;;;;;;2.29;82.09;100457.03;3608032;39;20066;-68
2023/03/06 03:57:25;;;;;;;17.38;11.38;;;;;;;2.27;82.30;100456.19;3597040;39;20396;-68
2023/03/06 03:59:51;;;;;;;18.73;12.57;;;;;;;2.24;81.84;100457.16;3604359;39;20074;-69
2023/03/06 04:02:17;;;;;;;19.35;11.93;;;;;;;2.25;82.52;100448.31;3606942;39;20066;-68
2023/03/06 04:04:42;;;;;;;19.30;12.45;;;;;;;2.26;82.83;100454.47;3610677;39;20054;-68
2023/03/06 04:07:09;;;;;;;20.63;13.77;;;;;;;2.24;82.42;100435.94;3608962;39;20077;-68
2023/03/06 04:09:34;;;;;;;21.15;12.60;;;;;;;2.26;82.53;100435.91;3605961;39;20365;-69
2023/03/06 04:12:00;;;;;;;20.52;13.77;;;;;;;2.24;82.25;100440.38;3607413;39;20409;-69
2023/03/06 04:14:26;;;;;;;22.40;14.25;;;;;;;2.21;82.89;100429.88;3609952;39;20069;-69
2023/03/06 04:16:51;;;;;;;23.15;15.15;;;;;;;2.13;82.55;100421.34;3608697;39;20056;-69
2023/03/06 04:19:17;;;;;;;24.38;15.05;;;;;;;2.17;82.92;100422.97;3615590;39;20298;-69
2023/03/06 04:21:42;;;;;;;23.48;14.80;;;;;;;2.21;82.41;100435.19;3610424;39;20085;-69
2023/03/06 04:24:08;;;;;;;25.35;15.88;;;;;;;2.20;81.72;100436.97;3601450;39;20062;-68
2023/03/06 04:26:34;;;;;;;25.38;15.52;;;;;;;2.20;83.21;100431.66;3605454;39;20309;-69
2023/03/06 04:29:00;;;;;;;26.40;16.85;;;;;;;2.11;83.47;100416.06;3608380;39;20301;-71
2023/03/06 04:31:26;;;;;;;27.17;16.88;;;;;;;2.21;82.97;100425.44;3609027;39;20056;-69
2023/03/06 04:33:51;;;;;;;25.92;15.38;;;;;;;2.24;82.72;100421.81;3607462;39;20124;-69
2023/03/06 04:36:33;;;;;;;27.30;15.68;;;;;;;1.91;83.02;100362.88;3608957;39;20062;-69
2023/03/06 04:39:00;;;;;;;25.23;16.25;;;;;;;2.25;82.58;100426.19;3609318;39;20059;-69
2023/03/06 04:41:26;;;;;;;25.63;15.68;;;;;;;2.28;82.97;100418.13;3614254;39;20046;-69
2023/03/06 04:43:52;;;;;;;27.58;16.23;;;;;;;2.32;83.71;100422.44;3612295;39;20058;-68
2023/03/06 04:46:18;;;;;;;27.58;16.63;;;;;;;2.30;83.61;100413.66;3609637;39;20059;-68
2023/03/06 04:48:44;;;;;;;28.15;17.27;;;;;;;2.33;83.12;100414.41;3606888;39;20051;-69
2023/03/06 04:51:12;;;;;;;31.77;17.75;;;;;;;2.26;82.70;100393.47;3606566;39;20098;-69
2023/03/06 04:53:38;;;;;;;29.50;17.42;;;;;;;2.43;82.50;100414.97;3608653;39;20061;-69
2023/03/06 04:56:04;;;;;;;30.15;17.83;;;;;;;2.38;83.63;100390.41;3608799;39;20453;-68
2023/03/06 04:58:30;;;;;;;28.67;17.67;;;;;;;2.50;83.34;100403.19;3609849;39;20328;-68
2023/03/06 05:00:55;;;;;;;29.90;17.38;;;;;;;2.52;83.37;100404.03;3606904;39;20055;-68
2023/03/06 05:03:21;;;;;;;29.77;18.05;;;;;;;2.54;83.02;100412.81;3608079;39;20062;-69
2023/03/06 05:05:46;;;;;;;30.42;18.27;;;;;;;2.56;83.04;100410.09;3606783;39;20395;-69
2023/03/06 05:08:15;;;;;;;31.80;18.65;;;;;;;2.58;83.30;100416.22;3609029;39;20043;-69
2023/03/06 05:10:42;;;;;;;26.55;17.60;;;;;;;2.58;83.48;100399.44;3610176;39;20047;-68
2023/03/06 05:13:08;;;;;;;32.58;19.00;;;;;;;2.62;82.56;100409.88;3609595;39;20050;-68
2023/03/06 05:15:33;;;;;;;30.77;19.25;;;;;;;2.64;83.36;100413.34;3610978;39;20050;-69
2023/03/06 05:17:59;;;;;;;31.25;19.20;;;;;;;2.66;83.00;100405.31;3609330;39;20365;-68
2023/03/06 05:20:25;;;;;;;30.33;18.65;;;;;;;2.45;82.77;100365.38;3608657;39;20090;-68
2023/03/06 05:22:50;;;;;;;32.50;19.63;;;;;;;2.71;82.64;100393.63;3608277;39;20102;-68
2023/03/06 05:25:16;;;;;;;33.65;19.60;;;;;;;2.51;82.39;100359.84;3605392;39;20046;-68
2023/03/06 05:27:42;;;;;;;33.38;18.83;;;;;;;2.75;82.75;100394.38;3610437;39;20062;-68
2023/03/06 05:30:12;;;;;;;30.20;18.55;;;;;;;2.76;82.78;100393.47;3607715;39;20175;-68
2023/03/06 05:32:38;;;;;;;30.38;18.65;;;;;;;2.81;82.66;100398.59;3608987;39;20051;-69
2023/03/06 05:35:05;;;;;;;31.52;19.17;;;;;;;2.83;82.45;100386.16;3596857;39;20055;-68
2023/03/06 05:37:32;;;;;;;34.05;19.38;;;;;;;2.84;83.21;100388.72;3607469;39;20051;-68
2023/03/06 05:39:57;;;;;;;31.00;20.10;;;;;;;2.85;82.98;100390.44;3603809;39;20385;-69
2023/03/06 05:42:23;;;;;;;31.58;18.85;;;;;;;2.74;82.31;100368.75;3599540;39;20063;-68
2023/03/06 05:44:49;;;;;;;32.15;19.55;;;;;;;2.87;82.22;100387.75;3603347;39;20122;-68
2023/03/06 05:47:14;;;;;;;31.63;19.67;;;;;;;2.86;82.64;100388.69;3607931;39;20069;-69
2023/03/06 05:49:40;;;;;;;33.63;20.48;;;;;;;2.87;82.05;100383.31;3600322;39;20059;-68
2023/03/06 05:52:07;;;;;;;34.47;19.80;;;;;;;2.89;82.75;100378.81;3612525;39;20564;-68
2023/03/06 05:54:35;;;;;;;33.90;20.80;;;;;;;2.91;82.77;100378.75;3608838;39;20112;-69
2023/03/06 05:57:03;;;;;;;33.25;19.73;;;;;;;2.89;82.37;100386.78;3609608;39;20058;-69
2023/03/06 05:59:31;;;;;;;34.05;20.02;;;;;;;2.93;82.92;100376.91;3607307;39;20453;-68
2023/03/06 06:01:57;;;;;;;33.28;20.90;;;;;;;2.91;81.95;100379.59;3607565;39;20063;-69
2023/03/06 06:04:25;;;;;;;34.17;20.27;;;;;;;2.83;82.39;100371.06;3608207;39;20073;-69
2023/03/06 06:06:56;;;;;;;36.17;20.52;;;;;;;2.96;82.67;100382.09;3609673;39;20061;-71
2023/03/06 06:09:24;;;;;;;34.63;21.02;;;;;;;2.96;82.22;100390.06;3610107;39;20267;-69
2023/03/06 06:11:53;;;;;;;32.30;19.40;;;;;;;2.82;82.36;100364.00;3617703;39;20073;-70
2023/03/06 06:14:19;;;;;;;35.42;21.13;;;;;;;2.97;81.99;100389.13;3615453;39;20059;-68
2023/03/06 06:16:45;;;;;;;32.22;19.98;;;;;;;2.97;81.98;100384.69;3611135;39;20082;-68
2023/03/06 06:19:17;;;;;;;35.25;21.45;;;;;;;2.96;82.28;100377.66;3601873;39;20382;-68
2023/03/06 06:21:48;;;;;;;34.08;20.48;;;;;;;2.96;82.81;100388.28;3609660;39;21390;-69
2023/03/06 06:24:16;;;;;;;35.83;20.98;;;;;;;2.89;83.43;100364.69;3608258;39;20059;-68
2023/03/06 06:26:43;;;;;;;34.20;20.77;;;;;;;2.70;82.78;100335.31;3609903;39;20057;-68
2023/03/06 06:29:10;;;;;;;35.85;21.00;;;;;;;3.00;82.93;100384.56;3609153;39;20050;-68
2023/03/06 06:31:37;;;;;;;34.90;20.98;;;;;;;2.94;82.71;100363.56;3597826;39;20063;-68
2023/03/06 06:34:05;;;;;;;35.17;21.02;;;;;;;3.05;82.74;100376.44;3603958;39;20062;-67
2023/03/06 06:36:31;;;;;;;36.08;20.63;;;;;;;2.94;82.15;100349.44;3605356;39;20062;-67
2023/03/06 06:38:57;;;;;;;34.72;21.45;;;;;;;3.09;82.97;100372.75;3596372;39;20062;-67
2023/03/06 06:41:23;;;;;;;35.00;21.67;;;;;;;3.14;82.48;100380.50;3608206;39;20295;-67
2023/03/06 06:43:49;;;;;;;35.63;20.85;;;;;;;3.13;82.75;100377.00;3605163;39;20062;-67
2023/03/06 06:46:15;;;;;;;32.03;20.25;;;;;;;3.12;82.67;100371.75;3594211;39;20082;-68
2023/03/06 06:48:40;;;;;;;33.58;20.33;;;;;;;3.12;82.90;100369.09;3608430;39;20415;-68
2023/03/06 06:51:06;;;;;;;38.80;22.05;;;;;;;3.22;83.00;100378.44;3610656;39;20054;-68
2023/03/06 06:53:32;;;;;;;35.97;21.40;;;;;;;3.25;82.51;100380.97;3608577;39;20058;-69
2023/03/06 06:55:59;;;;;;;36.58;21.45;;;;;;;3.18;81.84;100363.56;3595072;39;20401;-68
2023/03/06 06:58:25;;;;;;;36.03;21.58;;;;;;;3.15;82.61;100361.88;3607613;39;20057;-67
2023/03/06 07:00:51;;;;;;;38.83;22.02;;;;;;;3.26;82.22;100374.72;3603219;39;20059;-68
2023/03/06 07:03:18;;;;;;;37.25;22.50;;;;;;;3.32;82.91;100379.81;3612109;39;20451;-68
2023/03/06 07:05:44;;;;;;;37.88;22.13;;;;;;;3.37;82.61;100387.63;3612887;39;20038;-68
2023/03/06 07:08:09;;;;;;;36.17;21.67;;;;;;;3.38;82.77;100390.19;3610553;39;20051;-68
2023/03/06 07:10:38;;;;;;;34.55;20.85;;;;;;;3.38;82.60;100376.91;3606780;39;20051;-68
2023/03/06 07:13:04;;;;;;;35.58;21.58;;;;;;;3.34;82.59;100362.03;3607136;39;20046;-68
2023/03/06 07:15:30;;;;;;;36.25;22.65;;;;;;;3.46;81.98;100377.50;3606448;39;20312;-66
2023/03/06 07:17:56;;;;;;;37.60;22.85;;;;;;;3.49;82.18;100388.00;3606775;39;20099;-68
2023/03/06 07:20:22;;;;;;;36.95;22.83;;;;;;;3.54;82.28;100386.94;3610442;39;20130;-67
2023/03/06 07:22:48;;;;;;;38.28;22.88;;;;;;;3.55;82.20;100391.31;3607454;39;20058;-68
2023/03/06 07:25:14;;;;;;;38.70;22.70;;;;;;;3.59;82.37;100393.81;3604506;39;20055;-68
2023/03/06 07:27:40;;;;;;;40.13;23.98;;;;;;;3.60;82.74;100392.00;3602567;39;20124;-65
2023/03/06 07:30:06;;;;;;;41.70;23.67;;;;;;;3.61;82.43;100388.41;3608565;39;20094;-67
2023/03/06 07:32:32;;;;;;;40.40;24.25;;;;;;;3.68;82.22;100381.94;3609301;39;20057;-67
2023/03/06 07:34:57;;;;;;;43.17;26.38;;;;;;;3.70;82.55;100388.03;3609703;39;20051;-67
2023/03/06 07:37:23;;;;;;;39.50;23.67;;;;;;;3.70;83.06;100374.75;3611168;39;20085;-68
2023/03/06 07:39:48;;;;;;;41.47;25.55;;;;;;;3.71;83.14;100379.13;3606261;39;20448;-68
2023/03/06 07:42:14;;;;;;;39.97;25.23;;;;;;;3.77;83.50;100376.22;3608536;39;20110;-67
2023/03/06 07:44:41;;;;;;;40.33;24.30;;;;;;;3.58;83.06;100330.06;3607440;39;20059;-67
2023/03/06 07:47:06;;;;;;;41.42;24.55;;;;;;;3.91;83.23;100376.53;3607529;39;20058;-67
2023/03/06 07:49:34;;;;;;;40.78;25.15;;;;;;;3.92;83.22;100364.09;3609411;39;20415;-66
2023/03/06 07:52:01;;;;;;;40.72;24.90;;;;;;;4.10;83.21;100368.66;3605510;39;20413;-68
2023/03/06 07:54:29;;;;;;;43.78;25.08;;;;;;;3.66;82.62;100293.44;3604334;39;20091;-68
2023/03/06 07:56:55;;;;;;;41.40;23.70;;;;;;;4.19;82.62;100380.72;3607986;39;20065;-65
2023/03/06 07:59:21;;;;;;;38.08;23.67;;;;;;;4.17;82.08;100380.75;3606281;39;20062;-66
2023/03/06 08:01:46;;;;;;;39.00;25.05;;;;;;;4.19;82.28;100383.38;3604015;39;20368;-66
2023/03/06 08:04:12;;;;;;;39.83;24.98;;;;;;;4.19;81.89;100378.03;3604723;39;20054;-67
2023/03/06 08:06:38;;;;;;;39.03;24.33;;;;;;;4.22;82.00;100383.25;3604997;39;20047;-67
2023/03/06 08:09:03;;;;;;;37.58;24.88;;;;;;;4.26;82.57;100383.97;3605056;39;20048;-68
2023/03/06 08:11:32;;;;;;;43.47;25.20;;;;;;;4.17;82.07;100370.13;3608202;39;20051;-67
2023/03/06 08:13:58;;;;;;;39.85;25.70;;;;;;;4.27;82.00;100383.88;3605040;39;20083;-67
2023/03/06 08:16:28;;;;;;;38.95;24.00;;;;;;;4.26;81.96;100384.81;3609176;39;20046;-68
2023/03/06 08:18:55;;;;;;;36.65;23.88;;;;;;;4.26;82.27;100390.16;3607187;39;20494;-67
2023/03/06 08:21:26;;;;;;;40.83;25.38;;;;;;;4.23;82.18;100400.91;3608473;39;20047;-68
2023/03/06 08:23:52;;;;;;;38.60;23.27;;;;;;;4.29;82.62;100395.34;3605180;39;20055;-68
2023/03/06 08:26:23;;;;;;;37.10;23.40;;;;;;;4.30;82.04;100390.88;3605525;39;20083;-68
2023/03/06 08:28:52;;;;;;;39.30;22.77;;;;;;;4.32;83.05;100381.03;3610886;39;20107;-68
2023/03/06 08:31:34;;;;;;;36.95;23.33;;;;;;;4.37;81.79;100382.56;3605753;39;20096;-68
2023/03/06 08:34:08;;;;;;;35.35;22.33;;;;;;;4.34;82.68;100371.19;3604430;39;20175;-68
2023/03/06 08:36:34;;;;;;;39.20;23.30;;;;;;;4.50;82.91;100388.19;3610859;39;20128;-67
2023/03/06 08:39:01;;;;;;;37.45;23.33;;;;;;;4.52;82.85;100374.84;3609796;39;20059;-67
2023/03/06 08:41:28;;;;;;;38.08;22.13;;;;;;;4.74;82.75;100394.25;3609177;39;20051;-68
2023/03/06 08:43:54;;;;;;;37.72;22.50;;;;;;;4.93;82.61;100388.09;3605043;39;20063;-67
2023/03/06 08:46:24;;;;;;;36.15;22.63;;;;;;;5.07;82.22;100388.31;3612349;39;20054;-67
2023/03/06 08:48:50;;;;;;;32.00;21.58;;;;;;;5.15;80.99;100387.97;3611811;39;20135;-67
2023/03/06 08:51:18;;;;;;;34.22;21.25;;;;;;;5.26;80.95;100394.50;3604110;39;20124;-67
2023/03/06 08:53:43;;;;;;;29.52;19.88;;;;;;;5.23;80.69;100370.72;3609234;39;21309;-66
2023/03/06 08:56:29;;;;;;;29.55;18.73;;;;;;;5.39;79.73;100385.94;3609128;39;20106;-66
2023/03/06 08:58:57;;;;;;;29.48;19.52;;;;;;;5.41;80.08;100387.59;3608371;39;20057;-67
2023/03/06 09:01:28;;;;;;;29.85;19.90;;;;;;;5.47;79.63;100394.44;3609902;39;20058;-67
2023/03/06 09:03:57;;;;;;;30.33;19.63;;;;;;;5.35;79.68;100364.75;3611075;39;20061;-67
2023/03/06 09:06:24;;;;;;;30.17;19.38;;;;;;;5.57;79.57;100390.41;3611745;39;20058;-67
2023/03/06 09:08:51;;;;;;;29.08;19.17;;;;;;;5.65;80.32;100390.91;3608977;39;20108;-68
2023/03/06 09:11:19;;;;;;;32.20;19.70;;;;;;;5.73;79.70;100387.84;3612333;39;20053;-68
2023/03/06 09:13:44;;;;;;;28.88;18.88;;;;;;;5.72;79.05;100379.00;3611674;39;20055;-68
2023/03/06 09:16:11;;;;;;;29.20;19.85;;;;;;;5.80;78.56;100392.84;3614742;39;20058;-69
2023/03/06 09:18:37;;;;;;;30.65;19.38;;;;;;;5.91;79.15;100386.09;3612585;39;20046;-68
2023/03/06 09:21:04;;;;;;;30.83;19.60;;;;;;;5.99;79.11;100399.94;3615138;39;20054;-67
2023/03/06 09:23:30;;;;;;;26.60;16.85;;;;;;;5.95;77.59;100388.56;3613904;39;20277;-68
2023/03/06 09:25:59;;;;;;;26.13;17.63;;;;;;;6.04;78.08;100392.56;3616668;39;20047;-69
2023/03/06 09:28:25;;;;;;;27.38;17.80;;;;;;;6.11;77.82;100393.13;3615612;39;20100;-68
2023/03/06 09:30:51;;;;;;;28.52;18.85;;;;;;;6.18;78.14;100392.72;3613009;39;20056;-69
2023/03/06 09:33:18;;;;;;;28.27;19.00;;;;;;;6.28;78.26;100395.81;3613792;39;20355;-68
2023/03/06 09:35:52;;;;;;;27.65;19.50;;;;;;;6.34;77.44;100402.63;3610776;39;20070;-68
2023/03/06 09:38:20;;;;;;;25.42;17.50;;;;;;;6.33;76.82;100403.59;3613318;39;20051;-68
2023/03/06 09:41:06;;;;;;;23.33;16.75;;;;;;;6.37;76.98;100399.81;3612720;39;20103;-68
2023/03/06 09:43:44;;;;;;;24.10;16.73;;;;;;;6.38;75.71;100401.56;3611483;39;20499;-69
2023/03/06 09:46:53;;;;;;;24.45;17.55;;;;;;;6.44;76.51;100395.91;3611328;39;20062;-69
2023/03/06 09:50:22;;;;;;;24.08;17.73;;;;;;;6.51;76.21;100392.81;3612990;39;20055;-68
2023/03/06 09:53:17;;;;;;;26.30;18.15;;;;;;;6.63;75.61;100399.34;3591127;39;20455;-69
2023/03/06 09:55:50;;;;;;;23.30;16.10;;;;;;;6.66;75.31;100407.19;3611825;39;21514;-68
2023/03/06 09:58:23;;;;;;;21.58;15.75;;;;;;;6.68;75.21;100401.75;3612261;39;20062;-68
2023/03/06 10:01:05;;;;;;;22.77;16.95;;;;;;;6.74;74.41;100404.97;3611261;39;20056;-68
2023/03/06 10:04:15;;;;;;;25.02;16.40;;;;;;;6.80;74.22;100397.59;3611736;39;20053;-68
2023/03/06 10:06:54;;;;;;;22.85;16.23;;;;;;;6.88;74.46;100392.66;3608300;39;20059;-68
2023/03/06 10:09:34;;;;;;;21.77;16.00;;;;;;;6.92;74.59;100396.94;3608563;39;20051;-68
2023/03/06 10:12:19;;;;;;;21.40;13.57;;;;;;;6.65;72.72;100340.50;3610489;39;20415;-68
2023/03/06 10:14:54;;;;;;;21.52;13.95;;;;;;;7.05;72.32;100391.78;3602917;39;20398;-68
2023/03/06 10:17:24;;;;;;;21.83;14.10;;;;;;;7.14;72.12;100386.81;3612393;39;20374;-68
2023/03/06 10:19:51;;;;;;;18.33;13.07;;;;;;;7.22;71.85;100392.56;3610810;39;20063;-68
2023/03/06 10:22:56;;;;;;;17.23;12.73;;;;;;;7.23;70.93;100390.78;3609965;39;20066;-68
2023/03/06 10:26:00;;;;;;;;;;;;;;;7.25;71.30;100393.38;3610129;39;20073;-67
2023/03/06 10:28:41;;;;;;;20.42;14.63;;;;;;;7.23;71.05;100393.47;3577233;40;20269;-68
2023/03/06 10:31:19;;;;;;;21.92;14.07;;;;;;;7.17;70.56;100378.63;3608413;39;20131;-69
2023/03/06 10:34:27;;;;;;;19.25;13.45;;;;;;;7.21;70.15;100382.84;3610191;39;20061;-69
2023/03/06 10:36:53;;;;;;;17.88;12.80;;;;;;;7.38;69.98;100384.56;3612417;39;20364;-67
2023/03/06 10:39:21;;;;;;;23.80;15.90;;;;;;;7.15;70.18;100343.09;3612247;39;20083;-67
2023/03/06 10:41:48;;;;;;;20.17;15.45;;;;;;;7.44;69.36;100391.38;3610699;39;20411;-68
2023/03/06 10:44:14;;;;;;;22.73;15.82;;;;;;;7.46;69.06;100392.19;3611737;39;20154;-68
2023/03/06 10:46:42;;;;;;;20.35;14.93;;;;;;;7.49;69.71;100391.16;3611031;39;20067;-67
2023/03/06 10:49:28;;;;;;;21.33;13.90;;;;;;;7.54;68.81;100397.09;3611665;39;20123;-69
2023/03/06 10:52:21;;;;;;;19.73;13.57;;;;;;;7.63;68.07;100384.06;3611263;39;20051;-69
2023/03/06 10:54:47;;;;;;;18.65;13.35;;;;;;;7.72;67.91;100376.47;3611083;39;20047;-68
2023/03/06 10:57:29;;;;;;;17.02;11.68;;;;;;;7.81;67.00;100392.00;3611420;39;20054;-70
2023/03/06 11:00:10;;;;;;;16.33;11.90;;;;;;;7.82;67.69;100380.34;3612251;39;20392;-69
2023/03/06 11:02:39;;;;;;;14.52;11.25;;;;;;;7.84;67.06;100389.16;3611322;39;20063;-71
2023/03/06 11:05:18;;;;;;;15.57;11.57;;;;;;;7.83;65.99;100400.78;3610688;39;20051;-70
2023/03/06 11:07:59;;;;;;;14.95;11.00;;;;;;;7.76;65.43;100400.28;3608488;39;20066;-70
2023/03/06 11:10:27;;;;;;;14.85;10.40;;;;;;;7.82;65.88;100388.34;3606507;39;20071;-69
2023/03/06 11:13:17;;;;;;;16.70;10.35;;;;;;;7.83;64.67;100388.28;3607979;39;20058;-70
2023/03/06 11:15:56;;;;;;;15.30;10.90;;;;;;;7.63;65.61;100343.06;3606805;39;20132;-69
2023/03/06 11:18:33;;;;;;;14.57;10.85;;;;;;;7.79;66.05;100388.53;3605831;39;20055;-68
2023/03/06 11:21:06;;;;;;;14.77;10.70;;;;;;;7.84;66.86;100383.78;3605867;39;20043;-69
2023/03/06 11:23:45;;;;;;;16.60;10.88;;;;;;;7.81;66.64;100376.81;3606705;39;20301;-69
2023/03/06 11:26:16;;;;;;;16.15;11.55;;;;;;;7.89;66.36;100379.03;3607027;39;20650;-69
2023/03/06 11:28:50;;;;;;;14.30;10.30;;;;;;;7.89;66.38;100341.56;3605104;39;20063;-69